createdAt,value
2018-11-01T00:00:37.176Z,10.25
2018-11-01T00:03:18.129Z,10.13
2018-11-01T00:05:46.857Z,10.58
2018-11-01T00:08:15.804Z,10.68
2018-11-01T00:10:46.493Z,10.20
2018-11-01T00:13:21.548Z,9.23
2018-11-01T00:15:51.761Z,9.38
2018-11-01T00:18:20.796Z,8.87
2018-11-01T00:20:50.710Z,8.38
2018-11-01T00:23:19.919Z,8.05
2018-11-01T00:25:48.849Z,8.15
2018-11-01T00:28:18.718Z,8.23
2018-11-01T00:30:48.722Z,7.80
2018-11-01T00:33:17.725Z,8.20
2018-11-01T00:35:49.767Z,8.83
2018-11-01T00:38:18.651Z,9.43
2018-11-01T00:40:47.542Z,7.80
2018-11-01T00:43:16.580Z,7.62
2018-11-01T00:45:45.450Z,7.42
2018-11-01T00:48:14.442Z,7.40
2018-11-01T00:50:43.370Z,6.83
2018-11-01T00:53:12.554Z,7.03
2018-11-01T00:55:41.522Z,7.37
2018-11-01T00:58:10.438Z,8.73
2018-11-01T01:00:41.562Z,8.00
2018-11-01T01:03:10.819Z,7.30
2018-11-01T01:05:40.354Z,8.08
2018-11-01T01:08:08.998Z,7.92
2018-11-01T01:10:37.702Z,6.80
2018-11-01T01:13:06.342Z,7.40
2018-11-01T01:15:34.913Z,7.22
2018-11-01T01:18:03.757Z,7.12
2018-11-01T01:20:39.542Z,6.70
2018-11-01T01:23:11.969Z,6.90
2018-11-01T01:25:42.609Z,6.45
2018-11-01T01:28:12.610Z,6.60
2018-11-01T01:30:42.282Z,6.50
2018-11-01T01:33:14.400Z,6.27
2018-11-01T01:35:44.319Z,6.60
2018-11-01T01:38:12.894Z,6.50
2018-11-01T01:40:41.470Z,6.40
2018-11-01T01:43:10.169Z,6.65
2018-11-01T01:48:21.593Z,6.30
2018-11-01T01:50:50.160Z,6.30
2018-11-01T01:53:18.609Z,6.25
2018-11-01T01:55:47.937Z,6.15
2018-11-01T01:58:16.785Z,6.08
2018-11-01T02:00:45.477Z,6.10
2018-11-01T02:03:14.237Z,5.78
2018-11-01T02:05:44.126Z,6.47
2018-11-01T02:08:13.001Z,6.72
2018-11-01T02:10:42.102Z,6.75
2018-11-01T02:13:11.521Z,6.17
2018-11-01T02:15:40.220Z,6.10
2018-11-01T02:18:13.929Z,6.28
2018-11-01T02:20:43.050Z,6.50
2018-11-01T02:23:46.889Z,6.08
2018-11-01T02:29:07.061Z,6.35
2018-11-01T02:31:36.069Z,5.85
2018-11-01T02:34:05.753Z,6.75
2018-11-01T02:36:36.552Z,6.30
2018-11-01T02:39:12.361Z,6.70
2018-11-01T02:42:14.553Z,6.92
2018-11-01T02:44:46.229Z,6.62
2018-11-01T02:47:16.145Z,7.20
2018-11-01T02:49:50.311Z,7.17
2018-11-01T02:52:20.761Z,7.95
2018-11-01T02:54:56.122Z,7.87
2018-11-01T02:57:29.421Z,7.20
2018-11-01T03:00:02.989Z,7.05
2018-11-01T03:02:36.648Z,8.90
2018-11-01T03:05:09.596Z,7.85
2018-11-01T03:07:42.067Z,8.28
2018-11-01T03:10:14.236Z,8.47
2018-11-01T03:12:45.396Z,8.38
2018-11-01T03:15:19.000Z,8.57
2018-11-01T03:17:49.968Z,8.00
2018-11-01T03:20:22.455Z,8.78
2018-11-01T03:22:55.908Z,9.00
2018-11-01T03:25:24.747Z,8.18
2018-11-01T03:27:53.948Z,8.40
2018-11-01T03:30:23.607Z,7.85
2018-11-01T03:32:52.747Z,8.60
2018-11-01T03:35:23.732Z,8.20
2018-11-01T03:37:55.069Z,9.40
2018-11-01T03:40:27.576Z,8.37
2018-11-01T03:42:57.051Z,8.88
2018-11-01T03:45:29.840Z,9.88
2018-11-01T03:47:59.363Z,9.33
2018-11-01T03:50:29.615Z,8.75
2018-11-01T03:53:01.323Z,8.65
2018-11-01T03:55:30.024Z,8.90
2018-11-01T03:57:58.759Z,8.05
2018-11-01T04:00:27.836Z,8.00
2018-11-01T04:03:00.251Z,8.35
2018-11-01T04:05:29.335Z,9.15
2018-11-01T04:07:58.111Z,8.43
2018-11-01T04:10:26.775Z,9.60
2018-11-01T04:12:55.453Z,8.23
2018-11-01T04:15:24.083Z,8.10
2018-11-01T04:17:53.247Z,8.08
2018-11-01T04:20:21.848Z,8.80
2018-11-01T04:22:50.554Z,8.23
2018-11-01T04:25:19.331Z,8.63
2018-11-01T04:27:48.712Z,8.85
2018-11-01T04:30:17.419Z,8.53
2018-11-01T04:32:46.155Z,8.58
2018-11-01T04:35:14.931Z,7.80
2018-11-01T04:37:43.615Z,7.95
2018-11-01T04:40:12.443Z,9.00
2018-11-01T04:42:41.787Z,7.92
2018-11-01T04:45:11.925Z,8.20
2018-11-01T04:47:40.879Z,8.40
2018-11-01T04:50:11.328Z,8.00
2018-11-01T04:52:40.311Z,7.42
2018-11-01T04:55:09.442Z,7.85
2018-11-01T04:57:38.667Z,8.08
2018-11-01T05:00:09.855Z,8.48
2018-11-01T05:02:38.703Z,8.78
2018-11-01T05:05:07.693Z,9.58
2018-11-01T05:07:36.591Z,9.90
2018-11-01T05:10:06.916Z,9.50
2018-11-01T05:12:36.571Z,10.32
2018-11-01T05:15:05.580Z,11.38
2018-11-01T05:17:34.320Z,9.93
2018-11-01T05:20:03.031Z,10.40
2018-11-01T05:22:32.029Z,11.12
2018-11-01T05:25:00.827Z,11.90
2018-11-01T05:28:32.463Z,11.45
2018-11-01T05:31:01.630Z,11.20
2018-11-01T05:33:30.766Z,11.28
2018-11-01T05:36:00.040Z,11.05
2018-11-01T05:44:29.983Z,10.53
2018-11-01T05:46:59.987Z,10.88
2018-11-01T05:49:28.855Z,10.58
2018-11-01T05:51:58.351Z,10.93
2018-11-01T05:54:27.839Z,10.48
2018-11-01T05:56:56.683Z,10.15
2018-11-01T05:59:25.521Z,10.35
2018-11-01T06:01:57.314Z,10.08
2018-11-01T06:04:26.376Z,9.60
2018-11-01T06:06:55.114Z,10.82
2018-11-01T06:09:29.899Z,10.53
2018-11-01T06:11:59.083Z,11.30
2018-11-01T06:14:28.491Z,11.22
2018-11-01T06:16:57.678Z,11.30
2018-11-01T06:19:26.479Z,11.75
2018-11-01T06:21:55.467Z,12.13
2018-11-01T06:24:24.282Z,11.95
2018-11-01T06:26:53.123Z,12.40
2018-11-01T06:29:21.762Z,12.07
2018-11-01T06:31:50.451Z,11.95
2018-11-01T06:34:23.835Z,12.45
2018-11-01T06:36:52.652Z,14.23
2018-11-01T06:39:21.622Z,13.78
2018-11-01T06:41:51.706Z,12.45
2018-11-01T06:44:20.207Z,13.58
2018-11-01T06:46:48.923Z,13.18
2018-11-01T06:49:18.302Z,13.62
2018-11-01T06:51:48.437Z,12.93
2018-11-01T06:54:17.770Z,13.13
2018-11-01T06:56:46.794Z,14.30
2018-11-01T06:59:16.290Z,13.25
2018-11-01T07:01:45.210Z,14.18
2018-11-01T07:04:13.918Z,13.83
2018-11-01T07:06:42.524Z,13.93
2018-11-01T07:09:13.131Z,14.70
2018-11-01T07:12:12.656Z,14.78
2018-11-01T07:14:41.464Z,14.38
2018-11-01T07:17:10.326Z,13.98
2018-11-01T07:19:39.067Z,13.58
2018-11-01T07:22:07.920Z,13.13
2018-11-01T07:24:37.236Z,12.78
2018-11-01T07:27:06.232Z,12.73
2018-11-01T07:29:35.064Z,13.15
2018-11-01T07:32:03.915Z,13.40
2018-11-01T07:35:03.456Z,13.32
2018-11-01T07:37:32.364Z,12.37
2018-11-01T07:40:01.195Z,12.00
2018-11-01T07:42:29.976Z,15.25
2018-11-01T07:44:58.815Z,14.65
2018-11-01T07:47:27.648Z,13.45
2018-11-01T07:49:56.492Z,13.30
2018-11-01T07:52:25.139Z,11.57
2018-11-01T07:58:47.155Z,12.30
2018-11-01T08:04:09.512Z,10.93
2018-11-01T08:06:38.397Z,11.70
2018-11-01T08:09:09.444Z,10.55
2018-11-01T08:11:38.859Z,11.50
2018-11-01T08:14:08.048Z,10.32
2018-11-01T08:16:37.180Z,10.72
2018-11-01T08:19:06.823Z,10.32
2018-11-01T08:21:39.459Z,10.00
2018-11-01T08:24:08.332Z,9.40
2018-11-01T08:26:37.435Z,10.10
2018-11-01T08:29:06.439Z,10.13
2018-11-01T08:31:35.167Z,9.28
2018-11-01T08:34:04.327Z,10.25
2018-11-01T08:36:33.080Z,11.08
2018-11-01T08:39:01.996Z,9.15
2018-11-01T08:41:30.463Z,9.90
2018-11-01T08:43:58.943Z,9.80
2018-11-01T08:46:27.984Z,9.85
2018-11-01T08:48:57.143Z,9.53
2018-11-01T08:51:26.079Z,9.95
2018-11-01T08:53:54.795Z,8.70
2018-11-01T08:56:23.471Z,9.88
2018-11-01T08:58:52.423Z,8.88
2018-11-01T09:01:21.087Z,9.95
2018-11-01T09:03:50.183Z,9.08
2018-11-01T09:06:19.203Z,9.65
2018-11-01T09:08:47.971Z,9.30
2018-11-01T09:11:16.827Z,8.60
2018-11-01T09:13:48.587Z,9.05
2018-11-01T09:16:24.247Z,9.17
2018-11-01T09:18:53.475Z,8.58
2018-11-01T09:21:22.209Z,8.18
2018-11-01T09:23:51.114Z,8.40
2018-11-01T09:26:19.979Z,8.43
2018-11-01T09:28:53.769Z,7.30
2018-11-01T09:31:23.007Z,9.23
2018-11-01T09:33:51.513Z,8.68
2018-11-01T09:36:20.581Z,8.20
2018-11-01T09:41:44.859Z,8.75
2018-11-01T09:44:13.583Z,8.80
2018-11-01T09:46:42.623Z,7.78
2018-11-01T09:49:11.048Z,8.30
2018-11-01T09:51:39.777Z,8.30
2018-11-01T09:54:08.287Z,7.97
2018-11-01T09:56:37.320Z,8.40
2018-11-01T09:59:05.839Z,7.97
2018-11-01T10:01:34.329Z,8.38
2018-11-01T10:04:02.837Z,7.92
2018-11-01T10:06:31.597Z,7.83
2018-11-01T10:09:00.173Z,7.90
2018-11-01T10:11:28.745Z,8.75
2018-11-01T10:13:57.329Z,7.92
2018-11-01T10:16:26.189Z,8.25
2018-11-01T10:18:54.638Z,8.70
2018-11-01T10:21:23.237Z,7.73
2018-11-01T10:23:53.352Z,7.15
2018-11-01T10:26:21.905Z,7.95
2018-11-01T10:28:50.437Z,7.62
2018-11-01T10:31:19.013Z,7.92
2018-11-01T10:33:47.740Z,8.33
2018-11-01T10:36:17.437Z,7.95
2018-11-01T10:38:46.277Z,7.20
2018-11-01T10:41:15.134Z,7.67
2018-11-01T10:43:43.593Z,7.00
2018-11-01T10:46:12.398Z,7.40
2018-11-01T10:48:41.233Z,7.00
2018-11-01T10:51:09.768Z,7.40
2018-11-01T10:53:38.709Z,7.95
2018-11-01T10:56:07.207Z,7.15
2018-11-01T10:58:35.769Z,7.83
2018-11-01T11:03:16.040Z,7.35
2018-11-01T11:05:44.592Z,6.72
2018-11-01T11:08:13.400Z,6.92
2018-11-01T11:10:44.016Z,6.60
2018-11-01T11:13:12.760Z,6.90
2018-11-01T11:15:41.492Z,6.97
2018-11-01T11:18:10.324Z,8.98
2018-11-01T11:20:39.165Z,6.65
2018-11-01T11:23:10.744Z,7.33
2018-11-01T11:29:01.184Z,7.50
2018-11-01T11:31:30.000Z,6.78
2018-11-01T11:33:58.536Z,7.17
2018-11-01T11:36:27.109Z,7.30
2018-11-01T11:38:55.758Z,7.67
2018-11-01T11:41:24.359Z,6.83
2018-11-01T11:43:52.840Z,6.65
2018-11-01T11:46:22.139Z,7.15
2018-11-01T11:48:50.660Z,7.08
2018-11-01T11:51:19.255Z,6.33
2018-11-01T11:53:47.839Z,6.83
2018-11-01T11:56:16.412Z,6.62
2018-11-01T11:58:44.924Z,5.92
2018-11-01T12:01:13.455Z,6.72
2018-11-01T12:03:42.084Z,6.20
2018-11-01T12:06:10.812Z,6.77
2018-11-01T12:08:39.635Z,6.25
2018-11-01T12:11:08.124Z,6.45
2018-11-01T12:13:36.595Z,6.03
2018-11-01T12:16:05.764Z,7.17
2018-11-01T12:18:34.263Z,6.72
2018-11-01T12:21:02.757Z,6.20
2018-11-01T12:23:31.244Z,6.83
2018-11-01T12:26:00.332Z,5.87
2018-11-01T12:28:28.926Z,6.55
2018-11-01T12:30:57.363Z,7.00
2018-11-01T12:33:25.879Z,7.00
2018-11-01T12:35:54.409Z,6.53
2018-11-01T12:38:22.864Z,6.47
2018-11-01T12:40:51.915Z,6.22
2018-11-01T12:43:20.495Z,6.42
2018-11-01T12:45:48.963Z,5.90
2018-11-01T12:48:17.447Z,6.25
2018-11-01T12:50:45.984Z,6.97
2018-11-01T12:53:14.523Z,7.30
2018-11-01T12:55:43.011Z,7.17
2018-11-01T12:59:14.396Z,6.47
2018-11-01T13:01:42.882Z,6.53
2018-11-01T13:04:11.366Z,7.17
2018-11-01T13:06:40.403Z,6.87
2018-11-01T13:09:11.996Z,6.62
2018-11-01T13:11:40.451Z,6.33
2018-11-01T13:14:09.255Z,6.80
2018-11-01T13:16:38.260Z,6.15
2018-11-01T13:19:06.905Z,6.95
2018-11-01T13:21:35.415Z,7.20
2018-11-01T13:24:04.742Z,7.03
2018-11-01T13:26:33.256Z,7.92
2018-11-01T13:29:02.187Z,6.65
2018-11-01T13:31:30.638Z,7.03
2018-11-01T13:33:59.099Z,7.78
2018-11-01T13:36:27.571Z,7.60
2018-11-01T13:38:56.131Z,7.72
2018-11-01T13:41:24.632Z,8.15
2018-11-01T13:43:53.424Z,7.87
2018-11-01T13:46:22.406Z,8.38
2018-11-01T13:48:50.984Z,8.40
2018-11-01T13:51:19.726Z,8.70
2018-11-01T13:53:49.043Z,8.95
2018-11-01T13:56:17.611Z,9.63
2018-11-01T13:58:46.422Z,9.93
2018-11-01T14:01:15.285Z,10.50
2018-11-01T14:03:43.830Z,10.80
2018-11-01T14:06:12.335Z,9.70
2018-11-01T14:11:48.778Z,10.98
2018-11-01T14:14:17.564Z,11.12
2018-11-01T14:16:46.083Z,12.78
2018-11-01T14:19:14.870Z,12.45
2018-11-01T14:21:45.087Z,12.82
2018-11-01T14:24:22.223Z,13.78
2018-11-01T14:26:50.694Z,12.40
2018-11-01T14:29:20.486Z,13.98
2018-11-01T14:31:48.934Z,15.43
2018-11-01T14:34:17.407Z,14.18
2018-11-01T14:36:45.879Z,15.00
2018-11-01T14:39:17.439Z,15.18
2018-11-01T14:41:45.912Z,14.87
2018-11-01T14:44:14.392Z,17.85
2018-11-01T14:46:43.301Z,17.00
2018-11-01T14:49:11.770Z,16.47
2018-11-01T14:51:40.328Z,18.15
2018-11-01T14:54:09.390Z,18.67
2018-11-01T14:56:38.473Z,17.55
2018-11-01T14:59:07.938Z,17.27
2018-11-01T15:01:35.051Z,15.85
2018-11-01T15:04:03.527Z,18.05
2018-11-01T15:06:32.318Z,17.10
2018-11-01T15:09:00.750Z,17.82
2018-11-01T15:11:29.207Z,18.52
2018-11-01T15:13:57.674Z,18.27
2018-11-01T15:16:26.426Z,17.95
2018-11-01T15:18:55.390Z,19.20
2018-11-01T15:21:23.872Z,18.37
2018-11-01T15:23:52.477Z,19.02
2018-11-01T15:26:21.392Z,18.55
2018-11-01T15:28:49.726Z,19.65
2018-11-01T15:31:18.242Z,21.57
2018-11-01T15:33:46.765Z,18.98
2018-11-01T15:36:15.197Z,19.15
2018-11-01T15:38:43.710Z,18.45
2018-11-01T15:41:13.071Z,21.40
2018-11-01T15:43:42.141Z,20.15
2018-11-01T15:46:11.347Z,20.17
2018-11-01T15:48:40.441Z,20.72
2018-11-01T15:51:10.066Z,22.07
2018-11-01T15:53:38.737Z,22.95
2018-11-01T15:56:07.261Z,21.10
2018-11-01T15:58:35.781Z,21.82
2018-11-01T16:01:05.170Z,22.62
2018-11-01T16:03:34.001Z,21.77
2018-11-01T16:06:05.478Z,23.18
2018-11-01T16:08:33.966Z,22.77
2018-11-01T16:11:02.754Z,22.05
2018-11-01T16:13:31.237Z,22.45
2018-11-01T16:16:00.164Z,22.75
2018-11-01T16:18:29.145Z,21.23
2018-11-01T16:20:57.593Z,23.27
2018-11-01T16:23:26.366Z,22.95
2018-11-01T16:25:54.806Z,22.80
2018-11-01T16:28:23.750Z,24.37
2018-11-01T16:30:52.814Z,23.27
2018-11-01T16:33:21.274Z,24.35
2018-11-01T16:35:49.745Z,23.80
2018-11-01T16:38:18.209Z,26.00
2018-11-01T16:40:46.686Z,25.25
2018-11-01T16:43:15.134Z,24.25
2018-11-01T16:45:43.658Z,24.40
2018-11-01T16:48:12.338Z,24.72
2018-11-01T16:50:40.841Z,24.50
2018-11-01T16:53:09.330Z,26.10
2018-11-01T16:55:37.914Z,23.60
2018-11-01T16:58:06.410Z,24.07
2018-11-01T17:00:35.335Z,24.18
2018-11-01T17:03:03.890Z,24.63
2018-11-01T17:05:32.558Z,24.15
2018-11-01T17:08:01.035Z,24.07
2018-11-01T17:10:29.714Z,25.82
2018-11-01T17:12:58.182Z,25.62
2018-11-01T17:15:26.662Z,27.02
2018-11-01T17:17:55.148Z,24.82
2018-11-01T17:20:23.613Z,24.87
2018-11-01T17:22:52.138Z,27.58
2018-11-01T17:25:20.594Z,26.47
2018-11-01T17:27:49.095Z,26.45
2018-11-01T17:30:17.545Z,27.00
2018-11-01T17:32:50.885Z,27.32
2018-11-01T17:35:19.352Z,25.62
2018-11-01T17:37:47.821Z,28.38
2018-11-01T17:40:16.297Z,27.20
2018-11-01T17:42:45.285Z,26.42
2018-11-01T17:45:14.073Z,26.75
2018-11-01T17:47:42.914Z,28.35
2018-11-01T17:50:14.257Z,26.65
2018-11-01T17:52:43.248Z,28.05
2018-11-01T17:55:11.840Z,28.90
2018-11-01T17:57:40.748Z,28.80
2018-11-01T18:00:10.925Z,28.75
2018-11-01T18:02:39.790Z,27.20
2018-11-01T18:05:09.169Z,29.85
2018-11-01T18:07:37.998Z,28.07
2018-11-01T18:10:07.308Z,27.45
2018-11-01T18:12:36.042Z,29.02
2018-11-01T18:15:05.720Z,28.45
2018-11-01T18:17:34.225Z,28.47
2018-11-01T18:20:02.793Z,28.92
2018-11-01T18:22:31.225Z,28.85
2018-11-01T18:24:59.757Z,28.75
2018-11-01T18:27:28.568Z,30.05
2018-11-01T18:29:57.078Z,29.77
2018-11-01T18:32:25.603Z,29.30
2018-11-01T18:34:54.006Z,28.17
2018-11-01T18:37:22.473Z,28.80
2018-11-01T18:39:50.945Z,28.75
2018-11-01T18:42:19.433Z,29.02
2018-11-01T18:44:47.897Z,27.98
2018-11-01T18:47:16.368Z,28.83
2018-11-01T18:49:44.832Z,28.10
2018-11-01T18:52:13.352Z,26.62
2018-11-01T18:54:41.907Z,29.25
2018-11-01T18:57:10.668Z,27.07
2018-11-01T18:59:39.140Z,28.73
2018-11-01T19:02:07.619Z,27.80
2018-11-01T19:04:36.136Z,28.07
2018-11-01T19:07:05.271Z,27.20
2018-11-01T19:09:33.668Z,29.00
2018-11-01T19:12:02.224Z,27.87
2018-11-01T19:14:30.713Z,28.67
2018-11-01T19:16:59.177Z,28.25
2018-11-01T19:19:27.680Z,28.20
2018-11-01T19:21:56.241Z,28.17
2018-11-01T19:24:24.640Z,27.35
2018-11-01T19:26:53.144Z,27.40
2018-11-01T19:29:21.704Z,28.57
2018-11-01T19:31:50.499Z,27.75
2018-11-01T19:34:19.054Z,28.10
2018-11-01T19:36:47.401Z,26.70
2018-11-01T19:39:15.876Z,29.63
2018-11-01T19:41:44.631Z,28.00
2018-11-01T19:44:13.084Z,27.93
2018-11-01T19:46:45.643Z,28.35
2018-11-01T19:49:14.156Z,27.55
2018-11-01T19:51:42.621Z,29.05
2018-11-01T19:54:11.138Z,28.10
2018-11-01T19:56:39.548Z,29.27
2018-11-01T19:59:08.037Z,27.70
2018-11-01T20:01:36.523Z,27.73
2018-11-01T20:04:05.114Z,27.30
2018-11-01T20:06:33.560Z,26.45
2018-11-01T20:09:02.072Z,25.88
2018-11-01T20:11:30.496Z,27.65
2018-11-01T20:13:58.948Z,27.32
2018-11-01T20:16:27.404Z,27.45
2018-11-01T20:18:55.941Z,27.17
2018-11-01T20:21:24.382Z,27.17
2018-11-01T20:23:52.828Z,27.10
2018-11-01T20:26:21.544Z,27.25
2018-11-01T20:28:49.980Z,27.87
2018-11-01T20:31:18.593Z,27.05
2018-11-01T20:33:47.126Z,27.93
2018-11-01T20:36:15.517Z,27.05
2018-11-01T20:38:44.415Z,27.87
2018-11-01T20:41:12.948Z,25.70
2018-11-01T20:43:41.740Z,26.30
2018-11-01T20:46:10.240Z,27.98
2018-11-01T20:48:38.774Z,28.05
2018-11-01T20:51:07.248Z,26.95
2018-11-01T20:53:36.131Z,27.50
2018-11-01T20:56:04.747Z,25.68
2018-11-01T20:58:33.480Z,27.37
2018-11-01T21:01:02.074Z,26.25
2018-11-01T21:03:30.575Z,27.67
2018-11-01T21:05:59.039Z,28.45
2018-11-01T21:08:27.621Z,26.17
2018-11-01T21:10:57.974Z,26.62
2018-11-01T21:13:26.449Z,25.90
2018-11-01T21:15:54.955Z,27.03
2018-11-01T21:18:23.517Z,27.05
2018-11-01T21:20:52.375Z,26.87
2018-11-01T21:23:22.040Z,26.70
2018-11-01T21:25:50.526Z,28.17
2018-11-01T21:30:58.579Z,27.25
2018-11-01T21:33:34.776Z,25.08
2018-11-01T21:36:06.730Z,26.62
2018-11-01T22:37:15.539Z,25.27
2018-11-01T22:40:52.304Z,24.80
2018-11-01T22:50:10.915Z,24.30
2018-11-01T22:52:42.571Z,24.07
2018-11-01T22:55:12.391Z,24.80
2018-11-01T22:57:41.352Z,23.80
2018-11-01T23:00:12.609Z,24.90
2018-11-01T23:02:41.463Z,23.75
2018-11-01T23:05:10.767Z,24.35
2018-11-01T23:07:39.573Z,24.18
2018-11-01T23:10:10.396Z,25.50
2018-11-01T23:12:39.059Z,23.52
2018-11-01T23:15:08.875Z,23.57
2018-11-01T23:17:37.975Z,25.50
2018-11-01T23:20:06.975Z,23.30
2018-11-01T23:22:35.695Z,24.87
2018-11-01T23:25:05.597Z,24.18
2018-11-01T23:27:34.558Z,23.50
2018-11-01T23:30:03.455Z,22.98
2018-11-01T23:32:32.718Z,23.93
2018-11-01T23:35:01.616Z,21.42
2018-11-01T23:37:35.614Z,23.30
2018-11-01T23:40:10.131Z,21.75
2018-11-01T23:42:44.143Z,22.95
2018-11-01T23:45:18.135Z,23.73
2018-11-01T23:47:52.027Z,21.97
2018-11-01T23:50:31.678Z,22.05
2018-11-01T23:53:04.370Z,22.80
2018-11-01T23:55:33.270Z,23.15
2018-11-01T23:58:02.095Z,21.85
